Time;durP1;ratioP1;P1;durP2;ratioP2;P2;SDS_P1;SDS_P2;PMS_P1;PMS_P2;Temp;Humidity;BMP_temperature;BMP_pressure;BME280_temperature;BME280_humidity;BME280_pressure;Samples;Min_cycle;Max_cycle;Signal;HPM_P1;HPM_P2
2020/12/27 00:00:48;;;;;;;6.85;3.95;;;;;;;14.64;50.64;154966.25;1759046;81;21191;-74
2020/12/27 00:03:21;;;;;;;9.88;4.62;;;;;;;14.51;49.40;154930.75;1756579;81;21337;-75
2020/12/27 00:05:53;;;;;;;7.80;4.30;;;;;;;14.43;49.55;154908.38;1727523;83;21678;-74
2020/12/27 00:08:25;;;;;;;7.78;4.30;;;;;;;14.43;49.99;154911.02;1730567;81;21179;-73
2020/12/27 00:10:58;;;;;;;8.23;4.53;;;;;;;14.43;50.49;154908.38;1741034;82;21413;-74
2020/12/27 00:13:31;;;;;;;6.20;3.60;;;;;;;14.49;49.89;154926.81;1741532;82;21807;-74
2020/12/27 00:16:04;;;;;;;7.55;4.22;;;;;;;14.50;50.20;154928.13;1750313;81;21353;-75
2020/12/27 00:18:36;;;;;;;7.62;4.30;;;;;;;14.72;50.58;154986.00;1759203;81;21167;-74
2020/12/27 00:21:14;;;;;;;8.50;4.08;;;;;;;14.75;50.45;154993.91;1758876;81;21234;-74
2020/12/27 00:23:47;;;;;;;9.13;5.28;;;;;;;14.67;50.77;154974.16;1759030;81;21333;-74
2020/12/27 00:26:19;;;;;;;9.48;5.53;;;;;;;14.55;50.78;154942.59;1748814;81;21348;-74
2020/12/27 00:28:51;;;;;;;7.83;4.65;;;;;;;14.49;50.80;154925.48;1729268;82;21856;-74
2020/12/27 00:31:23;;;;;;;9.50;4.90;;;;;;;14.60;50.44;154954.41;1732506;82;21221;-75
2020/12/27 00:33:56;;;;;;;8.43;4.22;;;;;;;14.46;51.14;154918.92;1741185;82;21364;-76
2020/12/27 00:36:29;;;;;;;13.03;5.20;;;;;;;14.55;51.36;154942.59;1739954;82;21400;-74
2020/12/27 00:39:06;;;;;;;8.28;5.03;;;;;;;14.52;51.29;154934.67;1755765;80;21347;-76
2020/12/27 00:41:35;;;;;;;6.87;4.30;;;;;;;14.44;51.14;154912.36;1724951;83;21237;-76
2020/12/27 00:44:07;;;;;;;7.35;4.12;;;;;;;14.43;50.94;154911.02;1745557;80;21690;-75
2020/12/27 00:46:40;;;;;;;7.30;4.03;;;;;;;14.48;51.49;154922.84;1729399;83;21195;-75
2020/12/27 00:49:13;;;;;;;7.87;4.10;;;;;;;14.58;51.34;154949.20;1732451;82;21689;-74
2020/12/27 00:51:45;;;;;;;8.90;4.05;;;;;;;14.67;51.83;154972.88;1741304;82;21191;-73
2020/12/27 00:54:18;;;;;;;10.20;4.45;;;;;;;14.72;50.90;154986.00;1741272;82;21198;-74
2020/12/27 00:56:51;;;;;;;7.95;4.28;;;;;;;14.88;51.94;155029.41;1741334;82;21196;-74
2020/12/27 00:59:23;;;;;;;6.55;4.08;;;;;;;15.05;52.05;155072.83;1743270;82;21348;-74
2020/12/27 01:01:57;;;;;;;9.70;4.17;;;;;;;15.13;52.03;155095.22;1701602;84;21193;-73
2020/12/27 01:04:48;;;;;;;7.78;4.40;;;;;;;15.13;52.27;155095.22;1719205;81;21198;-74
2020/12/27 01:07:23;;;;;;;11.28;5.25;;;;;;;15.25;52.40;155126.86;1716028;82;21702;-75
2020/12/27 01:09:57;;;;;;;12.90;5.35;;;;;;;15.31;51.90;155142.69;1721877;83;21330;-75
2020/12/27 01:12:29;;;;;;;11.57;6.03;;;;;;;15.36;52.24;155155.81;1675402;84;21352;-75
2020/12/27 01:15:02;;;;;;;14.90;7.70;;;;;;;15.38;52.34;155161.09;1711012;84;21321;-75
2020/12/27 01:17:42;;;;;;;11.18;5.58;;;;;;;15.45;52.71;155180.84;1706730;84;21352;-74
2020/12/27 01:20:14;;;;;;;12.33;6.67;;;;;;;15.63;52.75;155226.94;1713480;82;21181;-74
2020/12/27 01:22:47;;;;;;;13.62;6.62;;;;;;;15.80;52.04;155273.03;1703352;84;21732;-74
2020/12/27 01:25:24;;;;;;;9.83;4.90;;;;;;;15.79;52.59;155270.39;1720497;82;21331;-74
2020/12/27 01:27:56;;;;;;;8.28;5.12;;;;;;;15.78;49.97;155267.75;1697932;84;21324;-78
2020/12/27 01:30:29;;;;;;;10.40;4.80;;;;;;;15.76;50.75;155262.47;1705514;83;21211;-75
2020/12/27 01:33:03;;;;;;;7.78;4.53;;;;;;;15.70;51.56;155246.69;1682677;85;21323;-76
2020/12/27 01:35:46;;;;;;;8.43;4.67;;;;;;;15.63;50.37;155228.23;1706140;83;21325;-74
2020/12/27 01:38:19;;;;;;;7.60;4.67;;;;;;;15.73;50.36;155253.27;1700506;82;21329;-75
2020/12/27 01:41:02;;;;;;;8.38;5.12;;;;;;;15.80;51.05;155273.03;1718116;82;21677;-74
2020/12/27 01:43:36;;;;;;;7.95;4.50;;;;;;;15.72;50.29;155251.97;1742871;81;21911;-76
2020/12/27 01:46:09;;;;;;;10.63;5.30;;;;;;;15.57;48.92;155211.11;1748257;81;21733;-74
2020/12/27 01:48:41;;;;;;;9.53;4.53;;;;;;;15.63;49.24;155228.23;1763686;81;21335;-74
2020/12/27 01:51:15;;;;;;;11.38;5.17;;;;;;;15.54;48.10;155203.25;1745293;81;21822;-74
2020/12/27 01:53:49;;;;;;;8.20;4.92;;;;;;;15.43;48.97;155175.58;1731868;81;21165;-74
2020/12/27 01:56:35;;;;;;;7.55;4.65;;;;;;;15.23;48.70;155120.25;1724083;81;21692;-75
2020/12/27 01:59:11;;;;;;;7.95;4.55;;;;;;;15.28;48.41;155134.78;1724705;82;21293;-73
2020/12/27 02:01:44;;;;;;;12.80;4.80;;;;;;;15.28;48.53;155133.48;1770615;80;22026;-73
2020/12/27 02:04:21;;;;;;;5.97;4.05;;;;;;;15.18;48.39;155107.06;1782305;80;21182;-73
2020/12/27 02:06:56;;;;;;;7.28;3.95;;;;;;;15.40;49.73;155167.66;1761627;80;21352;-72
2020/12/27 02:09:32;;;;;;;8.10;4.35;;;;;;;15.35;49.18;155153.19;1769521;80;21312;-73
2020/12/27 02:12:09;;;;;;;9.55;4.42;;;;;;;15.24;48.73;155122.88;1758263;81;21173;-72
2020/12/27 02:14:43;;;;;;;9.30;5.30;;;;;;;15.35;49.30;155153.19;1744272;82;21684;-72
2020/12/27 02:17:17;;;;;;;9.58;5.40;;;;;;;15.34;49.71;155149.25;1724053;83;21824;-73
2020/12/27 02:20:07;;;;;;;10.17;4.47;;;;;;;15.41;49.67;155169.00;1729743;82;21327;-73
2020/12/27 02:22:53;;;;;;;8.40;4.45;;;;;;;15.54;48.45;155204.53;1708992;83;21174;-72
2020/12/27 02:25:27;;;;;;;9.23;5.12;;;;;;;15.69;49.29;155244.06;1739529;82;21330;-73
2020/12/27 02:28:01;;;;;;;10.63;5.50;;;;;;;15.80;49.38;155273.03;1730715;82;21206;-73
2020/12/27 02:30:33;;;;;;;9.95;4.90;;;;;;;15.73;49.06;155254.61;1739629;81;21709;-73
2020/12/27 02:33:06;;;;;;;8.15;4.47;;;;;;;15.82;49.14;155278.31;1710973;83;21308;-73
2020/12/27 02:35:39;;;;;;;9.68;4.53;;;;;;;15.92;49.75;155303.28;1714343;83;21294;-73
2020/12/27 02:38:13;;;;;;;6.75;4.25;;;;;;;15.75;48.69;155259.83;1729175;81;21674;-73
2020/12/27 02:40:45;;;;;;;9.08;3.90;;;;;;;15.74;48.58;155257.19;1735386;81;21179;-74
2020/12/27 02:43:32;;;;;;;9.13;4.62;;;;;;;15.55;46.89;155207.17;1716184;81;21253;-73
2020/12/27 02:46:04;;;;;;;7.95;5.12;;;;;;;15.96;47.77;155315.19;1710243;83;21367;-72
2020/12/27 02:48:55;;;;;;;9.80;5.75;;;;;;;16.01;47.77;155328.33;1741576;81;21312;-72
2020/12/27 02:51:28;;;;;;;9.05;5.17;;;;;;;15.93;47.77;155307.27;1747928;81;21649;-72
2020/12/27 02:54:00;;;;;;;8.05;4.80;;;;;;;16.05;48.00;155337.53;1728044;81;21312;-72
2020/12/27 02:56:34;;;;;;;8.13;4.25;;;;;;;16.06;48.82;155340.19;1754575;81;21329;-72
2020/12/27 02:59:07;;;;;;;8.58;4.85;;;;;;;16.04;48.20;155334.91;1739899;81;21801;-72
2020/12/27 03:01:39;;;;;;;7.92;4.42;;;;;;;16.01;48.24;155327.03;1721358;82;21413;-72
2020/12/27 03:04:13;;;;;;;10.65;5.15;;;;;;;16.23;49.75;155386.28;1717353;82;21312;-72
2020/12/27 03:06:47;;;;;;;8.38;4.22;;;;;;;16.27;49.45;155396.84;1735408;82;21178;-72
2020/12/27 03:09:21;;;;;;;11.15;5.00;;;;;;;16.31;50.63;155408.75;1698463;82;21711;-72
2020/12/27 03:12:05;;;;;;;9.53;5.50;;;;;;;16.29;49.22;155402.13;1706137;82;21322;-72
2020/12/27 03:14:37;;;;;;;9.98;5.62;;;;;;;16.21;48.73;155381.02;1701414;82;21179;-72
2020/12/27 03:17:28;;;;;;;9.80;6.08;;;;;;;16.26;48.82;155394.20;1718391;83;21184;-72
2020/12/27 03:20:05;;;;;;;11.05;6.25;;;;;;;16.39;49.63;155428.52;1712368;83;21665;-72
2020/12/27 03:22:39;;;;;;;9.95;6.10;;;;;;;16.42;50.13;155436.44;1743329;81;21375;-72
2020/12/27 03:25:25;;;;;;;8.50;5.15;;;;;;;16.51;50.47;155461.44;1727958;82;21878;-73
2020/12/27 03:27:57;;;;;;;8.85;4.78;;;;;;;16.46;48.77;155446.95;1741731;81;21357;-73
2020/12/27 03:30:30;;;;;;;7.35;4.22;;;;;;;16.46;50.09;155446.95;1717316;82;21326;-72
2020/12/27 03:33:04;;;;;;;8.93;4.87;;;;;;;16.41;50.15;155435.09;1717360;82;21324;-73
2020/12/27 03:35:41;;;;;;;7.87;4.53;;;;;;;16.39;49.49;155428.52;1718684;82;21317;-73
2020/12/27 03:38:14;;;;;;;7.33;4.03;;;;;;;16.32;48.43;155410.05;1717121;81;21325;-73
2020/12/27 03:40:48;;;;;;;7.05;3.58;;;;;;;16.45;49.97;155444.31;1724397;81;21313;-73
2020/12/27 03:43:25;;;;;;;9.73;4.45;;;;;;;16.40;49.57;155431.16;1746778;81;21166;-73
2020/12/27 03:45:58;;;;;;;6.65;4.12;;;;;;;16.44;50.55;155443.02;1759093;81;21183;-73
2020/12/27 03:48:35;;;;;;;7.05;3.95;;;;;;;16.58;50.68;155478.58;1702973;82;21334;-73
2020/12/27 03:51:12;;;;;;;7.37;4.37;;;;;;;16.67;51.62;155502.28;1741667;81;21674;-73
2020/12/27 03:53:44;;;;;;;6.95;4.12;;;;;;;16.78;51.67;155532.62;1706813;82;21347;-73
2020/12/27 03:56:35;;;;;;;7.10;4.33;;;;;;;16.73;51.88;155518.13;1719544;81;21195;-73
2020/12/27 03:59:11;;;;;;;9.83;4.60;;;;;;;16.85;52.16;155549.77;1726604;81;21666;-73
2020/12/27 04:01:46;;;;;;;5.70;3.55;;;;;;;16.89;52.63;155560.33;1726377;81;21172;-73
2020/12/27 04:04:20;;;;;;;8.13;4.08;;;;;;;17.02;52.50;155594.56;1708160;83;21332;-73
2020/12/27 04:06:54;;;;;;;6.65;3.87;;;;;;;17.14;52.60;155627.55;1701872;83;21213;-73
2020/12/27 04:09:28;;;;;;;7.55;4.10;;;;;;;17.17;52.55;155634.13;1713367;82;21315;-73
2020/12/27 04:12:01;;;;;;;9.55;4.37;;;;;;;17.19;52.59;155640.70;1717033;83;21221;-74
2020/12/27 04:14:33;;;;;;;8.23;4.47;;;;;;;17.23;52.42;155652.62;1700821;83;21235;-74
2020/12/27 04:17:06;;;;;;;8.33;4.17;;;;;;;17.28;52.39;155664.48;1738975;82;21799;-74
2020/12/27 04:19:38;;;;;;;7.95;4.75;;;;;;;17.25;52.46;155657.84;1730928;82;21241;-73
2020/12/27 04:22:15;;;;;;;7.40;4.45;;;;;;;17.27;52.66;155663.14;1743221;82;21332;-73
2020/12/27 04:24:52;;;;;;;7.80;4.45;;;;;;;17.15;52.10;155630.19;1725189;82;21371;-73
2020/12/27 04:27:25;;;;;;;13.00;5.97;;;;;;;17.18;52.06;155636.77;1742528;82;21201;-74
2020/12/27 04:29:57;;;;;;;11.70;6.58;;;;;;;17.18;50.58;155639.41;1714071;83;21190;-74
2020/12/27 04:32:34;;;;;;;12.65;6.28;;;;;;;17.05;51.08;155602.48;1715411;83;21202;-74
2020/12/27 04:35:17;;;;;;;11.35;6.30;;;;;;;16.87;51.33;155556.34;1713906;83;21320;-74
2020/12/27 04:37:51;;;;;;;14.47;6.05;;;;;;;16.81;50.64;155539.20;1732804;82;21787;-74
2020/12/27 04:40:28;;;;;;;16.17;6.55;;;;;;;16.89;51.16;155560.33;1713884;83;21169;-74
2020/12/27 04:43:01;;;;;;;15.80;6.37;;;;;;;16.91;51.01;155565.56;1729051;82;21238;-74
2020/12/27 04:45:36;;;;;;;12.07;6.15;;;;;;;17.21;51.36;155647.34;1708180;83;21198;-73
2020/12/27 04:48:13;;;;;;;10.38;5.83;;;;;;;17.20;51.04;155643.34;1708210;83;21162;-73
2020/12/27 04:51:06;;;;;;;13.80;6.05;;;;;;;17.08;49.85;155611.70;1711285;83;21226;-73
2020/12/27 04:53:41;;;;;;;17.27;6.83;;;;;;;16.94;51.52;155574.83;1719551;83;21178;-73
2020/12/27 04:56:15;;;;;;;15.30;6.45;;;;;;;16.96;50.90;155580.06;1719829;83;21220;-73
2020/12/27 04:58:50;;;;;;;14.78;6.65;;;;;;;16.94;51.67;155574.83;1692470;83;21834;-73
2020/12/27 05:01:24;;;;;;;14.35;5.83;;;;;;;16.93;51.41;155572.19;1703415;83;21194;-72
2020/12/27 05:04:01;;;;;;;17.95;7.90;;;;;;;16.95;51.55;155577.47;1732545;82;21867;-73
2020/12/27 05:06:35;;;;;;;13.50;6.47;;;;;;;16.91;51.58;155566.91;1718090;83;21883;-73
2020/12/27 05:09:08;;;;;;;15.63;7.00;;;;;;;16.93;50.80;155572.19;1673204;85;21736;-73
2020/12/27 05:11:41;;;;;;;18.10;7.28;;;;;;;16.91;52.07;155566.91;1724220;82;21788;-73
2020/12/27 05:14:15;;;;;;;13.80;7.20;;;;;;;16.99;52.08;155586.69;1741520;82;21883;-73
2020/12/27 05:16:54;;;;;;;13.62;6.62;;;;;;;16.98;52.21;155584.05;1727419;82;21287;-73
2020/12/27 05:19:28;;;;;;;15.90;6.60;;;;;;;17.10;51.73;155616.98;1733065;82;21649;-73
2020/12/27 05:22:10;;;;;;;15.13;6.92;;;;;;;17.09;52.19;155614.34;1719651;82;21270;-73
2020/12/27 05:24:47;;;;;;;12.35;6.22;;;;;;;17.09;52.29;155614.34;1733869;82;21372;-73
2020/12/27 05:27:23;;;;;;;14.10;6.80;;;;;;;17.13;52.26;155624.91;1739520;82;21320;-74
2020/12/27 05:29:59;;;;;;;10.75;5.33;;;;;;;17.14;52.49;155626.20;1713199;82;21821;-73
2020/12/27 05:32:45;;;;;;;11.03;6.00;;;;;;;17.32;52.49;155675.05;1625086;85;21194;-72
2020/12/27 05:35:25;;;;;;;11.05;5.65;;;;;;;17.37;52.46;155689.55;1650530;85;21336;-73
2020/12/27 05:38:04;;;;;;;14.90;7.05;;;;;;;17.32;52.42;155675.05;1748194;81;21271;-73
2020/12/27 05:40:50;;;;;;;22.58;10.88;;;;;;;17.26;52.69;155660.50;1706102;83;21320;-74
2020/12/27 05:43:38;;;;;;;25.23;11.95;;;;;;;17.30;52.55;155671.11;1746315;82;21304;-73
2020/12/27 05:46:12;;;;;;;29.55;12.15;;;;;;;17.28;52.72;155664.48;1703522;83;21336;-72
2020/12/27 05:48:46;;;;;;;30.97;14.10;;;;;;;17.34;52.75;155681.69;1713729;83;21348;-73
2020/12/27 05:51:21;;;;;;;33.65;13.90;;;;;;;17.45;52.72;155710.69;1683019;84;21163;-72
2020/12/27 05:53:55;;;;;;;32.20;13.90;;;;;;;17.50;52.50;155723.84;1727916;82;21182;-74
2020/12/27 05:56:29;;;;;;;25.60;11.03;;;;;;;17.54;52.52;155733.06;1732397;82;21304;-73
2020/12/27 05:59:03;;;;;;;26.17;11.00;;;;;;;17.42;52.71;155702.77;1722199;81;21150;-73
2020/12/27 06:01:36;;;;;;;26.97;11.80;;;;;;;17.39;52.72;155693.55;1737295;82;21651;-74
2020/12/27 06:04:18;;;;;;;25.92;10.25;;;;;;;17.43;52.25;155705.41;1721617;83;21360;-73
2020/12/27 06:07:04;;;;;;;22.45;8.83;;;;;;;17.38;51.71;155690.91;1745019;82;21343;-72
2020/12/27 06:10:16;;;;;;;18.45;8.28;;;;;;;17.27;52.08;155661.84;1700835;83;21723;-73
2020/12/27 06:13:31;;;;;;;15.80;8.43;;;;;;;17.34;52.12;155680.33;1730952;81;21229;-74
2020/12/27 06:16:11;;;;;;;14.45;7.58;;;;;;;17.35;52.48;155684.31;1726565;81;21308;-74
2020/12/27 06:18:45;;;;;;;18.75;8.48;;;;;;;17.33;50.80;155679.03;1732387;81;21340;-74
2020/12/27 06:21:22;;;;;;;15.25;7.75;;;;;;;17.08;50.79;155611.70;1729225;83;21150;-76
2020/12/27 06:23:57;;;;;;;19.95;8.20;;;;;;;17.00;51.23;155590.63;1707324;83;21280;-75
2020/12/27 06:26:30;;;;;;;13.22;5.80;;;;;;;16.99;51.22;155587.98;1733594;82;21332;-74
2020/12/27 06:29:17;;;;;;;10.32;5.80;;;;;;;16.99;51.50;155586.69;1718631;83;21364;-75
2020/12/27 06:31:50;;;;;;;11.18;5.42;;;;;;;17.03;51.09;155597.20;1738732;82;21360;-74
2020/12/27 06:34:25;;;;;;;12.43;7.10;;;;;;;17.03;49.91;155598.55;1711865;81;21178;-73
2020/12/27 06:37:00;;;;;;;14.07;5.70;;;;;;;17.01;51.25;155593.27;1767549;81;21167;-75
2020/12/27 06:39:34;;;;;;;13.72;6.10;;;;;;;17.06;52.11;155606.47;1743315;81;21942;-73
2020/12/27 06:42:16;;;;;;;9.18;5.03;;;;;;;17.19;51.94;155642.06;1739190;81;21767;-73
2020/12/27 06:44:52;;;;;;;13.60;4.83;;;;;;;17.17;52.23;155634.13;1716635;83;21347;-71
2020/12/27 06:47:53;;;;;;;10.35;6.03;;;;;;;17.16;51.86;155632.83;1729865;81;21248;-72
2020/12/27 06:50:45;;;;;;;8.23;4.90;;;;;;;17.18;52.26;155639.41;1722930;82;21186;-74
2020/12/27 06:53:47;;;;;;;13.13;5.37;;;;;;;17.49;52.25;155719.91;1748216;81;21323;-74
2020/12/27 06:56:21;;;;;;;10.95;4.55;;;;;;;17.64;51.79;155759.50;1755094;82;21186;-73
2020/12/27 06:59:11;;;;;;;7.85;4.92;;;;;;;17.80;51.81;155803.02;1639472;86;21287;-74
2020/12/27 07:01:44;;;;;;;7.67;4.53;;;;;;;17.82;51.89;155808.31;1712862;81;21666;-73
2020/12/27 07:04:18;;;;;;;7.12;4.28;;;;;;;17.97;51.89;155846.56;1700301;82;21214;-74
2020/12/27 07:06:51;;;;;;;8.95;4.37;;;;;;;18.10;51.12;155882.17;1703796;83;21340;-72
2020/12/27 07:09:26;;;;;;;8.08;4.12;;;;;;;18.09;51.04;155879.53;1712992;83;21815;-72
2020/12/27 07:12:11;;;;;;;8.13;4.42;;;;;;;18.04;51.60;155865.00;1691637;83;21199;-73
2020/12/27 07:14:45;;;;;;;10.00;4.12;;;;;;;18.04;51.79;155866.36;1723847;83;21142;-72
2020/12/27 07:17:19;;;;;;;21.70;6.70;;;;;;;18.19;52.06;155905.91;1730188;82;21257;-72
2020/12/27 07:19:51;;;;;;;19.17;6.87;;;;;;;18.30;50.67;155935.00;1705254;82;21198;-72
2020/12/27 07:22:25;;;;;;;89.28;42.27;;;;;;;18.30;51.05;155935.00;1712120;81;21182;-72
2020/12/27 07:25:00;;;;;;;20.88;11.10;;;;;;;18.22;51.71;155913.89;1742283;82;21360;-72
2020/12/27 07:27:32;;;;;;;15.80;7.45;;;;;;;18.28;51.37;155931.05;1712291;83;21372;-76
2020/12/27 07:30:05;;;;;;;16.62;9.15;;;;;;;18.32;51.62;155941.63;1730865;81;21309;-84
2020/12/27 07:32:49;;;;;;;20.15;9.35;;;;;;;18.42;51.86;155966.67;1739067;81;21320;-75
2020/12/27 07:35:25;;;;;;;19.17;9.78;;;;;;;18.52;51.22;155994.41;1738836;81;21670;-82
2020/12/27 07:38:01;;;;;;;18.23;8.73;;;;;;;18.59;50.29;156012.88;1725786;81;21696;-72
2020/12/27 07:40:35;;;;;;;18.65;8.80;;;;;;;18.62;50.08;156019.52;1747146;80;21285;-78
2020/12/27 07:43:10;;;;;;;18.27;8.60;;;;;;;18.59;49.08;156012.88;1753596;81;21367;-84
2020/12/27 07:45:44;;;;;;;13.95;7.12;;;;;;;18.36;49.06;155950.86;1749123;81;21301;-77
2020/12/27 07:48:16;;;;;;;16.15;6.47;;;;;;;18.14;47.90;155894.03;1751853;81;21325;-81
2020/12/27 07:50:49;;;;;;;11.30;6.25;;;;;;;17.90;47.12;155828.06;1750752;81;21357;-77
2020/12/27 07:53:22;;;;;;;13.78;4.92;;;;;;;17.62;45.84;155755.50;1749250;81;21762;-73
2020/12/27 07:55:54;;;;;;;11.45;5.30;;;;;;;17.20;45.72;155644.69;1752095;81;21391;-77
2020/12/27 07:58:26;;;;;;;10.90;5.05;;;;;;;17.53;48.16;155731.78;1750547;81;21896;-78
2020/12/27 08:00:59;;;;;;;8.75;5.08;;;;;;;17.72;48.29;155780.59;1731448;81;21193;-79
2020/12/27 08:03:31;;;;;;;11.50;5.65;;;;;;;17.64;47.83;155760.80;1740045;82;21295;-76
2020/12/27 08:06:03;;;;;;;9.38;4.80;;;;;;;17.61;47.00;155751.56;1713044;83;21250;-75
2020/12/27 08:08:36;;;;;;;8.80;5.17;;;;;;;17.57;46.83;155741.00;1733503;82;21394;-74
2020/12/27 08:11:21;;;;;;;10.60;5.55;;;;;;;17.39;47.08;155694.84;1725553;82;21210;-76
2020/12/27 08:13:59;;;;;;;10.15;5.10;;;;;;;17.54;48.05;155733.06;1744329;81;21416;-74
2020/12/27 08:16:31;;;;;;;8.20;4.67;;;;;;;17.76;48.79;155791.16;1723059;82;21402;-75
2020/12/27 08:19:09;;;;;;;8.60;5.10;;;;;;;17.81;48.14;155804.31;1747748;81;21351;-72
2020/12/27 08:21:45;;;;;;;10.80;6.10;;;;;;;18.06;47.90;155871.59;1743043;81;21323;-76
2020/12/27 08:24:19;;;;;;;9.83;5.35;;;;;;;17.80;46.78;155803.02;1723977;82;21225;-80
2020/12/27 08:26:52;;;;;;;9.30;5.20;;;;;;;17.77;47.49;155795.09;1749412;81;21421;-72
2020/12/27 08:29:26;;;;;;;8.88;4.75;;;;;;;17.83;47.66;155809.61;1753300;81;21190;-80
2020/12/27 08:32:07;;;;;;;8.58;4.62;;;;;;;17.67;46.22;155768.72;1745655;81;21357;-74
2020/12/27 08:34:41;;;;;;;8.88;5.03;;;;;;;17.57;46.85;155742.34;1725991;82;21237;-74
2020/12/27 08:37:16;;;;;;;8.83;4.90;;;;;;;17.71;47.08;155777.94;1718430;81;21284;-75
2020/12/27 08:39:57;;;;;;;9.40;5.35;;;;;;;17.55;47.30;155735.72;1748511;81;21353;-74
2020/12/27 08:42:33;;;;;;;12.50;5.75;;;;;;;17.71;46.71;155779.23;1743973;81;21400;-72
2020/12/27 08:45:16;;;;;;;14.23;5.62;;;;;;;17.85;47.56;155816.19;1744335;81;21228;-71
2020/12/27 08:47:59;;;;;;;11.57;5.58;;;;;;;17.94;46.91;155838.63;1745577;81;22525;-74
2020/12/27 08:50:42;;;;;;;12.33;5.65;;;;;;;17.71;45.59;155777.94;1732894;81;21824;-77
2020/12/27 08:53:15;;;;;;;9.85;5.45;;;;;;;17.85;47.05;155814.89;1745398;81;21473;-76
2020/12/27 08:55:48;;;;;;;11.55;4.80;;;;;;;17.76;45.28;155791.16;1747796;81;21477;-79
2020/12/27 08:58:22;;;;;;;9.98;5.75;;;;;;;17.93;46.95;155835.98;1744010;81;21222;-78
2020/12/27 09:00:54;;;;;;;10.82;4.90;;;;;;;18.04;46.51;155866.36;1725954;82;21280;-80
2020/12/27 09:03:27;;;;;;;12.00;5.12;;;;;;;18.33;48.70;155942.92;1699121;83;21268;-78
2020/12/27 09:06:00;;;;;;;7.97;4.95;;;;;;;19.17;47.92;156166.09;1725163;82;21276;-77
2020/12/27 09:08:33;;;;;;;9.50;5.10;;;;;;;20.19;47.06;156437.05;1689136;82;21237;-77
2020/12/27 09:11:07;;;;;;;8.93;4.92;;;;;;;20.49;47.71;156516.34;1739830;81;21260;-82
2020/12/27 09:13:41;;;;;;;9.20;4.97;;;;;;;20.11;47.39;156415.91;1741518;81;21698;-75
2020/12/27 09:16:16;;;;;;;8.98;4.78;;;;;;;19.85;48.83;156347.12;1709840;81;22218;-79
2020/12/27 09:18:50;;;;;;;7.75;4.80;;;;;;;19.98;48.24;156381.53;1707552;83;21234;-81
2020/12/27 09:21:22;;;;;;;8.38;4.78;;;;;;;19.84;48.26;156343.17;1732281;82;21243;-77
2020/12/27 09:23:55;;;;;;;8.95;5.03;;;;;;;19.94;50.09;156370.91;1731537;82;21408;-75
2020/12/27 09:26:27;;;;;;;7.92;4.55;;;;;;;20.22;50.35;156446.28;1732790;82;21869;-75
2020/12/27 09:29:03;;;;;;;9.45;4.80;;;;;;;20.57;51.10;156537.55;1733701;82;21377;-76
2020/12/27 09:31:35;;;;;;;11.75;5.75;;;;;;;20.92;48.94;156631.47;1731154;81;21459;-76
2020/12/27 09:34:08;;;;;;;8.45;4.83;;;;;;;21.00;50.86;156653.97;1732056;82;21337;-77
2020/12/27 09:36:41;;;;;;;9.05;4.78;;;;;;;21.34;51.19;156743.94;1733377;82;21841;-80
2020/12/27 09:39:15;;;;;;;10.43;5.45;;;;;;;21.64;51.10;156822.06;1734039;82;21377;-78
2020/12/27 09:41:48;;;;;;;10.10;5.80;;;;;;;21.79;50.41;156863.09;1682052;82;21236;-87
2020/12/27 09:44:20;;;;;;;18.12;10.60;;;;;;;21.60;50.78;156811.47;1732518;82;21465;-77
2020/12/27 09:46:56;;;;;;;11.05;5.75;;;;;;;21.77;49.43;156857.78;1687373;83;21392;-76
2020/12/27 09:49:31;;;;;;;7.87;4.97;;;;;;;21.94;50.39;156904.13;1748848;81;21401;-76
2020/12/27 09:52:15;;;;;;;8.75;4.65;;;;;;;21.86;49.49;156881.66;1750508;81;21365;-78
2020/12/27 09:54:50;;;;;;;10.18;5.80;;;;;;;22.16;47.58;156961.06;1748498;81;21221;-78
2020/12/27 09:57:27;;;;;;;6.83;4.53;;;;;;;22.37;49.91;157016.72;1749104;81;21363;-80
2020/12/27 10:00:00;;;;;;;12.47;7.35;;;;;;;22.62;50.97;157084.31;1748071;81;21350;-77
2020/12/27 10:02:34;;;;;;;22.27;11.73;;;;;;;22.69;49.90;157101.47;1732973;81;21474;-77
2020/12/27 10:05:09;;;;;;;19.55;15.13;;;;;;;22.39;50.51;157022.03;1720431;82;21241;-74
2020/12/27 10:07:42;;;;;;;14.47;10.82;;;;;;;21.92;50.11;156897.52;1737773;82;21239;-77
2020/12/27 10:10:14;;;;;;;14.83;11.57;;;;;;;21.72;50.10;156843.23;1751233;81;21239;-77
2020/12/27 10:12:49;;;;;;;7.75;5.33;;;;;;;21.28;50.54;156728.08;1751280;81;21219;-75
2020/12/27 10:15:21;;;;;;;8.00;5.35;;;;;;;21.33;51.13;156739.98;1751301;81;21217;-74
2020/12/27 10:17:54;;;;;;;8.43;5.22;;;;;;;21.13;51.65;156687.03;1742554;81;21230;-76
2020/12/27 10:20:27;;;;;;;8.90;5.37;;;;;;;21.10;51.76;156680.42;1744949;81;21217;-76
2020/12/27 10:22:59;;;;;;;9.58;4.85;;;;;;;21.14;51.64;156689.67;1718600;83;21326;-77
2020/12/27 10:25:32;;;;;;;12.10;6.00;;;;;;;21.01;51.68;156655.27;1746336;81;21297;-75
2020/12/27 10:28:05;;;;;;;11.08;6.10;;;;;;;21.01;51.93;156656.63;1751081;81;21258;-76
2020/12/27 10:30:37;;;;;;;13.88;6.92;;;;;;;21.10;51.26;156679.13;1752042;81;21154;-76
2020/12/27 10:33:12;;;;;;;14.18;5.95;;;;;;;20.95;51.98;156639.42;1743487;81;21222;-76
2020/12/27 10:35:45;;;;;;;11.50;6.22;;;;;;;20.95;51.80;156639.42;1744360;81;21353;-71
2020/12/27 10:38:18;;;;;;;11.80;5.87;;;;;;;20.98;51.37;156648.67;1745201;82;21361;-88
2020/12/27 10:40:50;;;;;;;14.05;6.22;;;;;;;21.12;50.04;156685.72;1743001;81;21186;-89
2020/12/27 10:43:23;;;;;;;11.45;5.67;;;;;;;21.13;50.39;156688.38;1749476;81;21225;-80
2020/12/27 10:46:04;;;;;;;9.43;5.65;;;;;;;20.97;49.74;156646.03;1744837;80;21379;-81
2020/12/27 10:48:37;;;;;;;3.72;1.85;;;;;;;20.89;49.94;156623.53;1742874;80;21202;-75
2020/12/27 10:51:09;;;;;;;3.65;2.35;;;;;;;20.71;47.50;156574.58;1751559;81;21225;-75
2020/12/27 10:53:42;;;;;;;4.40;1.95;;;;;;;20.53;45.71;156528.30;1750660;80;21276;-78
2020/12/27 10:56:16;;;;;;;9.33;7.47;;;;;;;20.40;45.12;156492.56;1736181;81;21209;-75
2020/12/27 10:58:48;;;;;;;2.87;1.45;;;;;;;20.17;45.78;156431.75;1743856;80;21211;-75
2020/12/27 11:01:22;;;;;;;5.17;2.05;;;;;;;19.82;45.79;156339.19;1744807;80;21206;-73
2020/12/27 11:03:55;;;;;;;4.83;1.85;;;;;;;19.20;42.71;156175.39;1723476;82;21240;-71
2020/12/27 11:06:32;;;;;;;7.12;3.12;;;;;;;19.30;44.98;156200.44;1745248;80;21213;-72
2020/12/27 11:09:05;;;;;;;14.98;5.58;;;;;;;19.03;42.00;156129.11;1724719;82;21740;-73
2020/12/27 11:11:39;;;;;;;8.88;4.33;;;;;;;19.12;47.82;156152.92;1744708;80;21242;-72
2020/12/27 11:14:13;;;;;;;9.83;4.80;;;;;;;18.85;43.80;156081.55;1749705;81;21226;-71
2020/12/27 11:16:50;;;;;;;12.28;5.45;;;;;;;18.83;45.85;156076.25;1752759;81;21224;-72
2020/12/27 11:19:22;;;;;;;26.10;12.25;;;;;;;18.70;43.01;156040.63;1748551;81;21244;-72
2020/12/27 11:21:55;;;;;;;13.05;6.20;;;;;;;19.42;47.42;156232.16;1750000;81;21239;-74
2020/12/27 11:24:28;;;;;;;8.85;4.58;;;;;;;19.18;44.38;156168.75;1751188;81;21770;-73
2020/12/27 11:27:01;;;;;;;3.67;2.40;;;;;;;19.20;44.99;156175.39;1709039;83;21345;-72
2020/12/27 11:29:34;;;;;;;6.87;3.62;;;;;;;19.07;42.77;156140.98;1742324;81;21249;-72
2020/12/27 11:32:06;;;;;;;5.75;3.35;;;;;;;19.01;44.40;156122.47;1710947;83;21704;-72
2020/12/27 11:34:40;;;;;;;6.97;3.52;;;;;;;18.92;47.29;156100.06;1735051;81;21392;-72
2020/12/27 11:37:12;;;;;;;5.95;2.95;;;;;;;18.76;47.51;156056.44;1734554;82;21214;-73
2020/12/27 11:39:45;;;;;;;3.00;2.02;;;;;;;18.66;47.25;156030.03;1734980;81;21441;-72
2020/12/27 11:42:19;;;;;;;3.35;2.30;;;;;;;18.50;44.77;155989.13;1734245;82;21408;-73
2020/12/27 11:44:52;;;;;;;3.30;1.72;;;;;;;18.66;46.21;156030.03;1734192;82;21381;-71
2020/12/27 11:47:24;;;;;;;3.85;1.87;;;;;;;18.77;47.82;156059.08;1727983;81;21234;-72
2020/12/27 11:49:56;;;;;;;10.00;8.53;;;;;;;18.91;48.50;156096.06;1710657;83;21332;-72
2020/12/27 11:52:29;;;;;;;4.10;2.75;;;;;;;18.92;47.35;156100.06;1742413;81;21179;-73
2020/12/27 11:55:02;;;;;;;7.58;3.67;;;;;;;18.99;48.26;156118.53;1711945;83;21219;-73
2020/12/27 11:57:34;;;;;;;14.93;5.08;;;;;;;19.39;46.32;156225.56;1712474;82;21770;-72
2020/12/27 12:00:07;;;;;;;12.98;5.37;;;;;;;19.96;50.72;156376.25;1742167;81;21360;-72